sensor_id;sensor_type;location;lat;lon;timestamp;temperature;humidity
21612;DHT22;47005;52.292;13.452;2022-08-19T00:01:10;22.80;99.90
21612;DHT22;47005;52.292;13.452;2022-08-19T00:03:35;22.80;99.90
21612;DHT22;47005;52.292;13.452;2022-08-19T00:06:01;22.80;99.90
21612;DHT22;47005;52.292;13.452;2022-08-19T00:08:27;22.80;99.90
21612;DHT22;47005;52.292;13.452;2022-08-19T00:10:53;22.80;99.90
21612;DHT22;47005;52.292;13.452;2022-08-19T00:13:19;22.70;99.90
21612;DHT22;47005;52.292;13.452;2022-08-19T00:15:44;22.70;99.90
21612;DHT22;47005;52.292;13.452;2022-08-19T00:18:10;22.70;99.90
21612;DHT22;47005;52.292;13.452;2022-08-19T00:20:36;22.70;99.90
21612;DHT22;47005;52.292;13.452;2022-08-19T00:23:05;22.70;99.90
21612;DHT22;47005;52.292;13.452;2022-08-19T00:25:31;22.70;99.90
21612;DHT22;47005;52.292;13.452;2022-08-19T00:27:57;22.70;99.90
21612;DHT22;47005;52.292;13.452;2022-08-19T00:30:24;22.60;99.90
21612;DHT22;47005;52.292;13.452;2022-08-19T00:32:49;22.70;99.90
21612;DHT22;47005;52.292;13.452;2022-08-19T00:35:15;22.60;99.90
21612;DHT22;47005;52.292;13.452;2022-08-19T00:37:42;22.60;99.90
21612;DHT22;47005;52.292;13.452;2022-08-19T00:40:10;22.60;99.90
21612;DHT22;47005;52.292;13.452;2022-08-19T00:42:36;22.60;99.90
21612;DHT22;47005;52.292;13.452;2022-08-19T00:45:10;22.50;99.90
21612;DHT22;47005;52.292;13.452;2022-08-19T00:47:36;22.50;99.90
21612;DHT22;47005;52.292;13.452;2022-08-19T00:50:03;22.50;99.90
21612;DHT22;47005;52.292;13.452;2022-08-19T00:52:38;22.50;99.90
21612;DHT22;47005;52.292;13.452;2022-08-19T00:55:07;22.50;99.90
21612;DHT22;47005;52.292;13.452;2022-08-19T00:57:39;22.40;99.90
21612;DHT22;47005;52.292;13.452;2022-08-19T01:00:12;22.50;99.90
21612;DHT22;47005;52.292;13.452;2022-08-19T01:02:40;22.40;99.90
21612;DHT22;47005;52.292;13.452;2022-08-19T01:05:08;22.40;99.90
21612;DHT22;47005;52.292;13.452;2022-08-19T01:07:37;22.40;99.90
21612;DHT22;47005;52.292;13.452;2022-08-19T01:10:10;22.40;99.90
21612;DHT22;47005;52.292;13.452;2022-08-19T01:12:37;22.40;99.90
21612;DHT22;47005;52.292;13.452;2022-08-19T01:15:08;22.40;99.90
21612;DHT22;47005;52.292;13.452;2022-08-19T01:17:36;22.30;99.90
21612;DHT22;47005;52.292;13.452;2022-08-19T01:20:04;22.30;99.90
21612;DHT22;47005;52.292;13.452;2022-08-19T01:22:54;22.30;99.90
21612;DHT22;47005;52.292;13.452;2022-08-19T01:25:24;22.30;99.90
21612;DHT22;47005;52.292;13.452;2022-08-19T01:27:52;22.30;99.90
21612;DHT22;47005;52.292;13.452;2022-08-19T01:30:24;22.30;99.90
21612;DHT22;47005;52.292;13.452;2022-08-19T01:32:51;22.30;99.90
21612;DHT22;47005;52.292;13.452;2022-08-19T01:35:18;22.20;99.90
21612;DHT22;47005;52.292;13.452;2022-08-19T01:38:06;22.20;99.90
21612;DHT22;47005;52.292;13.452;2022-08-19T01:40:34;22.20;99.90
21612;DHT22;47005;52.292;13.452;2022-08-19T01:43:01;22.20;99.90
21612;DHT22;47005;52.292;13.452;2022-08-19T01:45:29;22.20;99.90
21612;DHT22;47005;52.292;13.452;2022-08-19T01:47:56;22.20;99.90
21612;DHT22;47005;52.292;13.452;2022-08-19T01:50:22;22.20;99.90
21612;DHT22;47005;52.292;13.452;2022-08-19T01:52:48;22.20;99.90
21612;DHT22;47005;52.292;13.452;2022-08-19T01:55:16;22.10;99.90
21612;DHT22;47005;52.292;13.452;2022-08-19T01:57:45;22.10;99.90
21612;DHT22;47005;52.292;13.452;2022-08-19T02:00:13;22.10;99.90
21612;DHT22;47005;52.292;13.452;2022-08-19T02:02:41;22.10;99.90
21612;DHT22;47005;52.292;13.452;2022-08-19T02:05:08;22.10;99.90
21612;DHT22;47005;52.292;13.452;2022-08-19T02:07:35;22.10;99.90
21612;DHT22;47005;52.292;13.452;2022-08-19T02:10:06;22.10;99.90
21612;DHT22;47005;52.292;13.452;2022-08-19T02:12:32;22.10;99.90
21612;DHT22;47005;52.292;13.452;2022-08-19T02:14:59;22.00;99.90
21612;DHT22;47005;52.292;13.452;2022-08-19T02:17:26;22.10;99.90
21612;DHT22;47005;52.292;13.452;2022-08-19T02:19:54;22.00;99.90
21612;DHT22;47005;52.292;13.452;2022-08-19T02:22:19;22.00;99.90
21612;DHT22;47005;52.292;13.452;2022-08-19T02:24:45;22.00;99.90
21612;DHT22;47005;52.292;13.452;2022-08-19T02:27:13;22.00;99.90
21612;DHT22;47005;52.292;13.452;2022-08-19T02:29:39;22.00;99.90
21612;DHT22;47005;52.292;13.452;2022-08-19T02:32:07;21.90;99.90
21612;DHT22;47005;52.292;13.452;2022-08-19T02:34:33;21.90;99.90
21612;DHT22;47005;52.292;13.452;2022-08-19T02:37:00;21.90;99.90
21612;DHT22;47005;52.292;13.452;2022-08-19T02:39:25;21.90;99.90
21612;DHT22;47005;52.292;13.452;2022-08-19T02:41:51;21.90;99.90
21612;DHT22;47005;52.292;13.452;2022-08-19T02:44:17;21.90;99.90
21612;DHT22;47005;52.292;13.452;2022-08-19T02:46:45;21.90;99.90
21612;DHT22;47005;52.292;13.452;2022-08-19T02:49:12;21.90;99.90
21612;DHT22;47005;52.292;13.452;2022-08-19T02:51:40;21.90;99.90
21612;DHT22;47005;52.292;13.452;2022-08-19T02:54:07;21.90;99.90
21612;DHT22;47005;52.292;13.452;2022-08-19T02:56:38;21.80;99.90
21612;DHT22;47005;52.292;13.452;2022-08-19T02:59:06;21.80;99.90
21612;DHT22;47005;52.292;13.452;2022-08-19T03:01:34;21.80;99.90
21612;DHT22;47005;52.292;13.452;2022-08-19T03:04:03;21.80;99.90
21612;DHT22;47005;52.292;13.452;2022-08-19T03:06:29;21.80;99.90
21612;DHT22;47005;52.292;13.452;2022-08-19T03:08:56;21.80;99.90
21612;DHT22;47005;52.292;13.452;2022-08-19T03:11:30;21.80;99.90
21612;DHT22;47005;52.292;13.452;2022-08-19T03:13:58;21.80;99.90
21612;DHT22;47005;52.292;13.452;2022-08-19T03:16:25;21.80;99.90
21612;DHT22;47005;52.292;13.452;2022-08-19T03:18:52;21.80;99.90
21612;DHT22;47005;52.292;13.452;2022-08-19T03:21:22;21.70;99.90
21612;DHT22;47005;52.292;13.452;2022-08-19T03:23:49;21.70;99.90
21612;DHT22;47005;52.292;13.452;2022-08-19T03:26:15;21.70;99.90
21612;DHT22;47005;52.292;13.452;2022-08-19T03:28:42;21.70;99.90
21612;DHT22;47005;52.292;13.452;2022-08-19T03:31:12;21.70;99.90
21612;DHT22;47005;52.292;13.452;2022-08-19T03:33:39;21.70;99.90
21612;DHT22;47005;52.292;13.452;2022-08-19T03:36:07;21.70;99.90
21612;DHT22;47005;52.292;13.452;2022-08-19T03:38:38;21.70;99.90
21612;DHT22;47005;52.292;13.452;2022-08-19T03:41:07;21.60;99.90
21612;DHT22;47005;52.292;13.452;2022-08-19T03:43:38;21.70;99.90
21612;DHT22;47005;52.292;13.452;2022-08-19T03:46:09;21.60;99.90
21612;DHT22;47005;52.292;13.452;2022-08-19T03:48:36;21.70;99.90
21612;DHT22;47005;52.292;13.452;2022-08-19T03:51:03;21.60;99.90
21612;DHT22;47005;52.292;13.452;2022-08-19T03:53:29;21.60;99.90
21612;DHT22;47005;52.292;13.452;2022-08-19T03:55:56;21.60;99.90
21612;DHT22;47005;52.292;13.452;2022-08-19T03:58:23;21.60;99.90
21612;DHT22;47005;52.292;13.452;2022-08-19T04:00:49;21.60;99.90
21612;DHT22;47005;52.292;13.452;2022-08-19T04:03:15;21.60;99.90
21612;DHT22;47005;52.292;13.452;2022-08-19T04:05:41;21.60;99.90
21612;DHT22;47005;52.292;13.452;2022-08-19T04:08:06;21.60;99.90
21612;DHT22;47005;52.292;13.452;2022-08-19T04:10:36;21.50;99.90
21612;DHT22;47005;52.292;13.452;2022-08-19T04:13:03;21.50;99.90
21612;DHT22;47005;52.292;13.452;2022-08-19T04:15:31;21.50;99.90
21612;DHT22;47005;52.292;13.452;2022-08-19T04:18:01;21.50;99.90
21612;DHT22;47005;52.292;13.452;2022-08-19T04:20:26;21.50;99.90
21612;DHT22;47005;52.292;13.452;2022-08-19T04:22:52;21.50;99.90
21612;DHT22;47005;52.292;13.452;2022-08-19T04:25:17;21.50;99.90
21612;DHT22;47005;52.292;13.452;2022-08-19T04:27:43;21.50;99.90
21612;DHT22;47005;52.292;13.452;2022-08-19T04:30:12;21.50;99.90
21612;DHT22;47005;52.292;13.452;2022-08-19T04:32:38;21.50;99.90
21612;DHT22;47005;52.292;13.452;2022-08-19T04:35:04;21.50;99.90
21612;DHT22;47005;52.292;13.452;2022-08-19T04:37:30;21.50;99.90
21612;DHT22;47005;52.292;13.452;2022-08-19T04:39:59;21.50;99.90
21612;DHT22;47005;52.292;13.452;2022-08-19T04:42:44;21.50;99.90
21612;DHT22;47005;52.292;13.452;2022-08-19T04:45:12;21.50;99.90
21612;DHT22;47005;52.292;13.452;2022-08-19T04:47:40;21.50;99.90
21612;DHT22;47005;52.292;13.452;2022-08-19T04:50:07;21.50;99.90
21612;DHT22;47005;52.292;13.452;2022-08-19T04:52:34;21.50;99.90
21612;DHT22;47005;52.292;13.452;2022-08-19T04:54:59;21.50;99.90
21612;DHT22;47005;52.292;13.452;2022-08-19T04:57:25;21.50;99.90
21612;DHT22;47005;52.292;13.452;2022-08-19T04:59:55;21.50;99.90
21612;DHT22;47005;52.292;13.452;2022-08-19T05:02:21;21.50;99.90
21612;DHT22;47005;52.292;13.452;2022-08-19T05:04:56;21.50;99.90
21612;DHT22;47005;52.292;13.452;2022-08-19T05:07:22;21.50;99.90
21612;DHT22;47005;52.292;13.452;2022-08-19T05:09:47;21.50;99.90
21612;DHT22;47005;52.292;13.452;2022-08-19T05:12:13;21.50;99.90
21612;DHT22;47005;52.292;13.452;2022-08-19T05:14:39;21.50;99.90
21612;DHT22;47005;52.292;13.452;2022-08-19T05:17:04;21.50;99.90
21612;DHT22;47005;52.292;13.452;2022-08-19T05:19:30;21.50;99.90
21612;DHT22;47005;52.292;13.452;2022-08-19T05:22:14;21.50;99.90
21612;DHT22;47005;52.292;13.452;2022-08-19T05:25:01;21.50;99.90
21612;DHT22;47005;52.292;13.452;2022-08-19T05:27:27;21.50;99.90
21612;DHT22;47005;52.292;13.452;2022-08-19T05:29:52;21.50;99.90
21612;DHT22;47005;52.292;13.452;2022-08-19T05:32:18;21.50;99.90
21612;DHT22;47005;52.292;13.452;2022-08-19T05:34:43;21.50;99.90
21612;DHT22;47005;52.292;13.452;2022-08-19T05:37:10;21.50;99.90
21612;DHT22;47005;52.292;13.452;2022-08-19T05:39:37;21.50;99.90
21612;DHT22;47005;52.292;13.452;2022-08-19T05:42:12;21.60;99.90
21612;DHT22;47005;52.292;13.452;2022-08-19T05:44:40;21.60;99.90
21612;DHT22;47005;52.292;13.452;2022-08-19T05:47:10;21.60;99.90
21612;DHT22;47005;52.292;13.452;2022-08-19T05:49:36;21.60;99.90
21612;DHT22;47005;52.292;13.452;2022-08-19T05:52:09;21.60;99.90
21612;DHT22;47005;52.292;13.452;2022-08-19T05:54:37;21.60;99.90
21612;DHT22;47005;52.292;13.452;2022-08-19T05:57:06;21.60;99.90
21612;DHT22;47005;52.292;13.452;2022-08-19T05:59:32;21.60;99.90
21612;DHT22;47005;52.292;13.452;2022-08-19T06:01:59;21.70;99.90
21612;DHT22;47005;52.292;13.452;2022-08-19T06:04:26;21.60;99.90
21612;DHT22;47005;52.292;13.452;2022-08-19T06:06:53;21.70;99.90
21612;DHT22;47005;52.292;13.452;2022-08-19T06:09:19;21.70;99.90
21612;DHT22;47005;52.292;13.452;2022-08-19T06:11:49;21.70;99.90
21612;DHT22;47005;52.292;13.452;2022-08-19T06:14:18;21.70;99.90
21612;DHT22;47005;52.292;13.452;2022-08-19T06:16:45;21.70;99.90
21612;DHT22;47005;52.292;13.452;2022-08-19T06:19:15;21.70;99.90
21612;DHT22;47005;52.292;13.452;2022-08-19T06:21:43;21.70;99.90
21612;DHT22;47005;52.292;13.452;2022-08-19T06:24:12;21.70;99.90
21612;DHT22;47005;52.292;13.452;2022-08-19T06:26:41;21.70;99.90
21612;DHT22;47005;52.292;13.452;2022-08-19T06:29:09;21.70;99.90
21612;DHT22;47005;52.292;13.452;2022-08-19T06:31:35;21.70;99.90
21612;DHT22;47005;52.292;13.452;2022-08-19T06:34:03;21.70;99.90
21612;DHT22;47005;52.292;13.452;2022-08-19T06:36:32;21.70;99.90
21612;DHT22;47005;52.292;13.452;2022-08-19T06:39:05;21.80;99.90
21612;DHT22;47005;52.292;13.452;2022-08-19T06:41:33;21.80;99.90
21612;DHT22;47005;52.292;13.452;2022-08-19T06:43:59;21.80;99.90
21612;DHT22;47005;52.292;13.452;2022-08-19T06:46:25;21.80;99.90
21612;DHT22;47005;52.292;13.452;2022-08-19T06:48:52;21.80;99.90
21612;DHT22;47005;52.292;13.452;2022-08-19T06:51:20;21.80;99.90
21612;DHT22;47005;52.292;13.452;2022-08-19T06:53:50;21.80;99.90
21612;DHT22;47005;52.292;13.452;2022-08-19T06:56:21;21.80;99.90
21612;DHT22;47005;52.292;13.452;2022-08-19T06:58:48;21.80;99.90
21612;DHT22;47005;52.292;13.452;2022-08-19T07:01:17;21.80;99.90
21612;DHT22;47005;52.292;13.452;2022-08-19T07:03:43;21.80;99.90
21612;DHT22;47005;52.292;13.452;2022-08-19T07:06:13;21.80;99.90
21612;DHT22;47005;52.292;13.452;2022-08-19T07:08:40;21.80;99.90
21612;DHT22;47005;52.292;13.452;2022-08-19T07:11:09;21.90;99.90
21612;DHT22;47005;52.292;13.452;2022-08-19T07:13:36;21.90;99.90
21612;DHT22;47005;52.292;13.452;2022-08-19T07:16:07;21.90;99.90
21612;DHT22;47005;52.292;13.452;2022-08-19T07:18:34;21.90;99.90
21612;DHT22;47005;52.292;13.452;2022-08-19T07:21:15;21.90;99.90
21612;DHT22;47005;52.292;13.452;2022-08-19T07:23:42;21.90;99.90
21612;DHT22;47005;52.292;13.452;2022-08-19T07:26:27;22.00;99.90
21612;DHT22;47005;52.292;13.452;2022-08-19T07:28:53;21.90;99.90
21612;DHT22;47005;52.292;13.452;2022-08-19T07:31:21;22.00;99.90
21612;DHT22;47005;52.292;13.452;2022-08-19T07:33:48;22.00;99.90
21612;DHT22;47005;52.292;13.452;2022-08-19T07:36:17;22.00;99.90
21612;DHT22;47005;52.292;13.452;2022-08-19T07:38:45;22.00;99.90
21612;DHT22;47005;52.292;13.452;2022-08-19T07:41:15;22.00;99.90
21612;DHT22;47005;52.292;13.452;2022-08-19T07:43:41;22.10;99.90
21612;DHT22;47005;52.292;13.452;2022-08-19T07:46:10;22.10;99.90
21612;DHT22;47005;52.292;13.452;2022-08-19T07:48:36;22.10;99.90
21612;DHT22;47005;52.292;13.452;2022-08-19T07:51:04;22.10;99.90
21612;DHT22;47005;52.292;13.452;2022-08-19T07:53:31;22.20;99.90
21612;DHT22;47005;52.292;13.452;2022-08-19T07:55:58;22.10;99.90
21612;DHT22;47005;52.292;13.452;2022-08-19T07:58:31;22.20;99.90
21612;DHT22;47005;52.292;13.452;2022-08-19T08:00:57;22.20;99.90
21612;DHT22;47005;52.292;13.452;2022-08-19T08:03:26;22.20;99.90
21612;DHT22;47005;52.292;13.452;2022-08-19T08:06:11;22.20;99.90
21612;DHT22;47005;52.292;13.452;2022-08-19T08:08:55;22.30;99.90
21612;DHT22;47005;52.292;13.452;2022-08-19T08:11:42;22.20;99.90
21612;DHT22;47005;52.292;13.452;2022-08-19T08:14:10;22.30;99.90
21612;DHT22;47005;52.292;13.452;2022-08-19T08:16:36;22.30;99.90
21612;DHT22;47005;52.292;13.452;2022-08-19T08:19:04;22.30;99.90
21612;DHT22;47005;52.292;13.452;2022-08-19T08:21:31;22.30;99.90
21612;DHT22;47005;52.292;13.452;2022-08-19T08:23:57;22.30;99.90
21612;DHT22;47005;52.292;13.452;2022-08-19T08:26:24;22.30;99.90
21612;DHT22;47005;52.292;13.452;2022-08-19T08:28:50;22.30;99.90
21612;DHT22;47005;52.292;13.452;2022-08-19T08:31:16;22.30;99.90
21612;DHT22;47005;52.292;13.452;2022-08-19T08:33:43;22.30;99.90
21612;DHT22;47005;52.292;13.452;2022-08-19T08:36:11;22.30;99.90
21612;DHT22;47005;52.292;13.452;2022-08-19T08:38:37;22.40;99.90
21612;DHT22;47005;52.292;13.452;2022-08-19T08:43:40;22.30;99.90
21612;DHT22;47005;52.292;13.452;2022-08-19T08:51:22;22.30;99.90
21612;DHT22;47005;52.292;13.452;2022-08-19T08:53:52;22.30;99.90
21612;DHT22;47005;52.292;13.452;2022-08-19T08:56:19;22.40;99.90
21612;DHT22;47005;52.292;13.452;2022-08-19T08:58:56;22.40;99.90
21612;DHT22;47005;52.292;13.452;2022-08-19T09:01:23;22.40;99.90
21612;DHT22;47005;52.292;13.452;2022-08-19T09:03:49;22.40;99.90
21612;DHT22;47005;52.292;13.452;2022-08-19T09:06:26;22.40;99.90
21612;DHT22;47005;52.292;13.452;2022-08-19T09:11:56;22.40;99.90
21612;DHT22;47005;52.292;13.452;2022-08-19T09:17:09;22.40;99.90
21612;DHT22;47005;52.292;13.452;2022-08-19T09:22:40;22.50;99.90
21612;DHT22;47005;52.292;13.452;2022-08-19T09:25:11;22.50;99.90
21612;DHT22;47005;52.292;13.452;2022-08-19T09:27:39;22.50;99.90
21612;DHT22;47005;52.292;13.452;2022-08-19T09:30:06;22.50;99.90
21612;DHT22;47005;52.292;13.452;2022-08-19T09:32:32;22.50;99.90
21612;DHT22;47005;52.292;13.452;2022-08-19T09:34:58;22.60;99.90
21612;DHT22;47005;52.292;13.452;2022-08-19T09:37:27;22.60;99.90
21612;DHT22;47005;52.292;13.452;2022-08-19T09:39:52;22.60;99.90
21612;DHT22;47005;52.292;13.452;2022-08-19T09:42:19;22.60;99.90
21612;DHT22;47005;52.292;13.452;2022-08-19T09:44:45;22.70;99.90
21612;DHT22;47005;52.292;13.452;2022-08-19T09:47:12;22.70;99.90
21612;DHT22;47005;52.292;13.452;2022-08-19T09:49:39;22.70;99.90
21612;DHT22;47005;52.292;13.452;2022-08-19T09:52:06;22.70;99.90
21612;DHT22;47005;52.292;13.452;2022-08-19T09:54:34;22.80;99.90
21612;DHT22;47005;52.292;13.452;2022-08-19T09:57:00;22.80;99.90
21612;DHT22;47005;52.292;13.452;2022-08-19T09:59:26;22.80;99.90
21612;DHT22;47005;52.292;13.452;2022-08-19T10:01:52;22.80;99.90
21612;DHT22;47005;52.292;13.452;2022-08-19T10:04:18;22.80;99.90
21612;DHT22;47005;52.292;13.452;2022-08-19T10:06:45;22.80;99.90
21612;DHT22;47005;52.292;13.452;2022-08-19T10:09:14;22.80;99.90
21612;DHT22;47005;52.292;13.452;2022-08-19T10:11:41;22.80;99.90
21612;DHT22;47005;52.292;13.452;2022-08-19T10:14:07;22.80;99.90
21612;DHT22;47005;52.292;13.452;2022-08-19T10:16:35;22.80;99.90
21612;DHT22;47005;52.292;13.452;2022-08-19T10:19:01;22.80;99.90
21612;DHT22;47005;52.292;13.452;2022-08-19T10:21:30;22.80;99.90
21612;DHT22;47005;52.292;13.452;2022-08-19T10:23:58;22.80;99.90
21612;DHT22;47005;52.292;13.452;2022-08-19T10:26:27;22.80;99.90
21612;DHT22;47005;52.292;13.452;2022-08-19T10:28:53;22.80;99.90
21612;DHT22;47005;52.292;13.452;2022-08-19T10:31:22;22.70;99.90
21612;DHT22;47005;52.292;13.452;2022-08-19T10:33:49;22.70;99.90
21612;DHT22;47005;52.292;13.452;2022-08-19T10:36:18;22.70;99.90
21612;DHT22;47005;52.292;13.452;2022-08-19T10:38:46;22.70;99.90
21612;DHT22;47005;52.292;13.452;2022-08-19T10:41:15;22.70;99.90
21612;DHT22;47005;52.292;13.452;2022-08-19T10:43:41;22.70;99.90
21612;DHT22;47005;52.292;13.452;2022-08-19T10:46:09;22.70;99.90
21612;DHT22;47005;52.292;13.452;2022-08-19T10:48:36;22.70;99.90
21612;DHT22;47005;52.292;13.452;2022-08-19T10:51:03;22.70;99.90
21612;DHT22;47005;52.292;13.452;2022-08-19T10:53:47;22.70;99.90
21612;DHT22;47005;52.292;13.452;2022-08-19T10:56:13;22.70;99.90
21612;DHT22;47005;52.292;13.452;2022-08-19T10:58:57;22.70;99.90
21612;DHT22;47005;52.292;13.452;2022-08-19T11:01:24;22.70;99.90
21612;DHT22;47005;52.292;13.452;2022-08-19T11:03:50;22.70;99.90
21612;DHT22;47005;52.292;13.452;2022-08-19T11:06:16;22.70;99.90
21612;DHT22;47005;52.292;13.452;2022-08-19T11:08:41;22.70;99.90
21612;DHT22;47005;52.292;13.452;2022-08-19T11:11:10;22.70;99.90
21612;DHT22;47005;52.292;13.452;2022-08-19T11:13:39;22.70;99.90
21612;DHT22;47005;52.292;13.452;2022-08-19T11:16:13;22.70;99.90
21612;DHT22;47005;52.292;13.452;2022-08-19T11:18:44;22.70;99.90
21612;DHT22;47005;52.292;13.452;2022-08-19T11:21:16;22.70;99.90
21612;DHT22;47005;52.292;13.452;2022-08-19T11:23:43;22.70;99.90
21612;DHT22;47005;52.292;13.452;2022-08-19T11:26:09;22.70;99.90
21612;DHT22;47005;52.292;13.452;2022-08-19T11:28:35;22.70;99.90
21612;DHT22;47005;52.292;13.452;2022-08-19T11:31:01;22.70;99.90
21612;DHT22;47005;52.292;13.452;2022-08-19T11:33:29;22.70;99.90
21612;DHT22;47005;52.292;13.452;2022-08-19T11:35:57;22.70;99.90
21612;DHT22;47005;52.292;13.452;2022-08-19T11:38:24;22.70;99.90
21612;DHT22;47005;52.292;13.452;2022-08-19T11:40:58;22.70;99.90
21612;DHT22;47005;52.292;13.452;2022-08-19T11:43:24;22.70;99.90
21612;DHT22;47005;52.292;13.452;2022-08-19T11:45:52;22.70;99.90
21612;DHT22;47005;52.292;13.452;2022-08-19T11:48:18;22.70;99.90
21612;DHT22;47005;52.292;13.452;2022-08-19T11:50:50;22.70;99.90
21612;DHT22;47005;52.292;13.452;2022-08-19T11:53:17;22.70;99.90
21612;DHT22;47005;52.292;13.452;2022-08-19T11:55:46;22.70;99.90
21612;DHT22;47005;52.292;13.452;2022-08-19T11:58:12;22.60;99.90
21612;DHT22;47005;52.292;13.452;2022-08-19T12:00:39;22.60;99.90
21612;DHT22;47005;52.292;13.452;2022-08-19T12:03:05;22.60;99.90
21612;DHT22;47005;52.292;13.452;2022-08-19T12:05:31;22.60;99.90
21612;DHT22;47005;52.292;13.452;2022-08-19T12:07:57;22.60;99.90
21612;DHT22;47005;52.292;13.452;2022-08-19T12:10:23;22.60;99.90
21612;DHT22;47005;52.292;13.452;2022-08-19T12:12:49;22.60;99.90
21612;DHT22;47005;52.292;13.452;2022-08-19T12:15:14;22.70;99.90
21612;DHT22;47005;52.292;13.452;2022-08-19T12:17:41;22.60;99.90
21612;DHT22;47005;52.292;13.452;2022-08-19T12:20:09;22.60;99.90
21612;DHT22;47005;52.292;13.452;2022-08-19T12:22:36;22.60;99.90
21612;DHT22;47005;52.292;13.452;2022-08-19T12:25:03;22.60;99.90
21612;DHT22;47005;52.292;13.452;2022-08-19T12:27:29;22.60;99.90
21612;DHT22;47005;52.292;13.452;2022-08-19T12:29:54;22.70;99.90
21612;DHT22;47005;52.292;13.452;2022-08-19T12:32:20;22.60;99.90
21612;DHT22;47005;52.292;13.452;2022-08-19T12:34:46;22.70;99.90
21612;DHT22;47005;52.292;13.452;2022-08-19T12:37:13;22.70;99.90
21612;DHT22;47005;52.292;13.452;2022-08-19T12:39:40;22.70;99.90
21612;DHT22;47005;52.292;13.452;2022-08-19T12:42:07;22.70;99.90
21612;DHT22;47005;52.292;13.452;2022-08-19T12:44:35;22.70;99.90
21612;DHT22;47005;52.292;13.452;2022-08-19T12:47:00;22.70;99.90
21612;DHT22;47005;52.292;13.452;2022-08-19T12:49:29;22.70;99.90
21612;DHT22;47005;52.292;13.452;2022-08-19T12:51:54;22.70;99.90
21612;DHT22;47005;52.292;13.452;2022-08-19T12:54:20;22.60;99.90
21612;DHT22;47005;52.292;13.452;2022-08-19T12:56:46;22.70;99.90
21612;DHT22;47005;52.292;13.452;2022-08-19T12:59:11;22.70;99.90
21612;DHT22;47005;52.292;13.452;2022-08-19T13:01:37;22.70;99.90
21612;DHT22;47005;52.292;13.452;2022-08-19T13:04:03;22.70;99.90
21612;DHT22;47005;52.292;13.452;2022-08-19T13:06:29;22.70;99.90
21612;DHT22;47005;52.292;13.452;2022-08-19T13:08:55;22.60;99.90
21612;DHT22;47005;52.292;13.452;2022-08-19T13:11:22;22.60;99.90
21612;DHT22;47005;52.292;13.452;2022-08-19T13:13:51;22.60;99.90
21612;DHT22;47005;52.292;13.452;2022-08-19T13:16:17;22.60;99.90
21612;DHT22;47005;52.292;13.452;2022-08-19T13:18:45;22.60;99.90
21612;DHT22;47005;52.292;13.452;2022-08-19T13:21:18;22.60;99.90
21612;DHT22;47005;52.292;13.452;2022-08-19T13:23:45;22.60;99.90
21612;DHT22;47005;52.292;13.452;2022-08-19T13:26:12;22.60;99.90
21612;DHT22;47005;52.292;13.452;2022-08-19T13:28:39;22.60;99.90
21612;DHT22;47005;52.292;13.452;2022-08-19T13:31:27;22.60;99.90
21612;DHT22;47005;52.292;13.452;2022-08-19T13:34:12;22.60;99.90
21612;DHT22;47005;52.292;13.452;2022-08-19T13:36:39;22.60;99.90
21612;DHT22;47005;52.292;13.452;2022-08-19T13:39:06;22.60;99.90
21612;DHT22;47005;52.292;13.452;2022-08-19T13:41:33;22.60;99.90
21612;DHT22;47005;52.292;13.452;2022-08-19T13:43:59;22.60;99.90
21612;DHT22;47005;52.292;13.452;2022-08-19T13:46:25;22.60;99.90
21612;DHT22;47005;52.292;13.452;2022-08-19T13:48:52;22.60;99.90
21612;DHT22;47005;52.292;13.452;2022-08-19T13:51:18;22.60;99.90
21612;DHT22;47005;52.292;13.452;2022-08-19T13:53:44;22.70;99.90
21612;DHT22;47005;52.292;13.452;2022-08-19T13:56:12;22.70;99.90
21612;DHT22;47005;52.292;13.452;2022-08-19T13:58:38;22.70;99.90
21612;DHT22;47005;52.292;13.452;2022-08-19T14:01:05;22.70;99.90
21612;DHT22;47005;52.292;13.452;2022-08-19T14:03:32;22.70;99.90
21612;DHT22;47005;52.292;13.452;2022-08-19T14:05:58;22.70;99.90
21612;DHT22;47005;52.292;13.452;2022-08-19T14:08:24;22.70;99.90
21612;DHT22;47005;52.292;13.452;2022-08-19T14:10:50;22.80;99.90
21612;DHT22;47005;52.292;13.452;2022-08-19T14:13:18;22.80;99.90
21612;DHT22;47005;52.292;13.452;2022-08-19T14:15:45;22.80;99.90
21612;DHT22;47005;52.292;13.452;2022-08-19T14:18:12;22.80;99.90
21612;DHT22;47005;52.292;13.452;2022-08-19T14:20:38;22.80;99.90
21612;DHT22;47005;52.292;13.452;2022-08-19T14:23:04;22.80;99.90
21612;DHT22;47005;52.292;13.452;2022-08-19T14:25:32;22.80;99.90
21612;DHT22;47005;52.292;13.452;2022-08-19T14:27:59;22.80;99.90
21612;DHT22;47005;52.292;13.452;2022-08-19T14:30:28;22.80;99.90
21612;DHT22;47005;52.292;13.452;2022-08-19T14:32:55;22.80;99.90
21612;DHT22;47005;52.292;13.452;2022-08-19T14:35:21;22.80;99.90
21612;DHT22;47005;52.292;13.452;2022-08-19T14:37:48;22.80;99.90
21612;DHT22;47005;52.292;13.452;2022-08-19T14:40:17;22.80;99.90
21612;DHT22;47005;52.292;13.452;2022-08-19T14:42:43;22.80;99.90
21612;DHT22;47005;52.292;13.452;2022-08-19T14:45:11;22.80;99.90
21612;DHT22;47005;52.292;13.452;2022-08-19T14:47:36;22.80;99.90
21612;DHT22;47005;52.292;13.452;2022-08-19T14:50:05;22.80;99.90
21612;DHT22;47005;52.292;13.452;2022-08-19T14:52:32;22.80;99.90
21612;DHT22;47005;52.292;13.452;2022-08-19T14:54:57;22.80;99.90
21612;DHT22;47005;52.292;13.452;2022-08-19T14:57:23;22.80;99.90
21612;DHT22;47005;52.292;13.452;2022-08-19T14:59:48;22.80;99.90
21612;DHT22;47005;52.292;13.452;2022-08-19T15:02:15;22.80;99.90
21612;DHT22;47005;52.292;13.452;2022-08-19T15:04:41;22.70;99.90
21612;DHT22;47005;52.292;13.452;2022-08-19T15:07:06;22.70;99.90
21612;DHT22;47005;52.292;13.452;2022-08-19T15:09:32;22.70;99.90
21612;DHT22;47005;52.292;13.452;2022-08-19T15:11:59;22.70;99.90
21612;DHT22;47005;52.292;13.452;2022-08-19T15:14:27;22.70;99.90
21612;DHT22;47005;52.292;13.452;2022-08-19T15:16:57;22.70;99.90
21612;DHT22;47005;52.292;13.452;2022-08-19T15:19:23;22.70;99.90
21612;DHT22;47005;52.292;13.452;2022-08-19T15:21:49;22.70;99.90
21612;DHT22;47005;52.292;13.452;2022-08-19T15:24:14;22.70;99.90
21612;DHT22;47005;52.292;13.452;2022-08-19T15:26:40;22.70;99.90
21612;DHT22;47005;52.292;13.452;2022-08-19T15:29:05;22.70;99.90
21612;DHT22;47005;52.292;13.452;2022-08-19T15:31:31;22.70;99.90
21612;DHT22;47005;52.292;13.452;2022-08-19T15:34:02;22.70;99.90
21612;DHT22;47005;52.292;13.452;2022-08-19T15:36:28;22.70;99.90